Pacolet, South Carolina
Current Conditions -  °F | °C
As of 11:15 AM on Monday 22 Dec 2014 (Local Time) from KSPA Reporting Station
Overcast Overcast  
Wind Chill: 34°   Ceiling: 500
Heat Index: 41°   Visibility: 7mi
Dew Point: 41°   Wind: 12mph
Humidity: 100%   Direction: 40°NE
Pressure: 30.1"   Gusts: 16mph
Location:  34.9°N, 81.76°W
Report Text: KSPA 221615Z AUTO 04010G14KT 7SM OVC005 05/05 A3010 RMK AO2
Loading
Personal Weather Stations






























Interactive Weather Map New forecast layout! Learn more

10-Day Weather Forecast

Advertisements
Track Severe Weather on mobile